Time,TemperatureF,DewpointF,PressureIn,WindDirection,WindDirectionDegrees,WindSpeedMPH,WindSpeedGustMPH,Humidity,HourlyPrecipIn,Conditions,Clouds,dailyrainin,SolarRadiationWatts/m^2,SoftwareType,DateUTC
2013-01-30 00:01:00,43.0,43.0,-100.00,WSW,245,2.0,5.0,100,0.00,,,0.00,0.000000,,2013-01-30 05:01:00,
2013-01-30 00:22:00,43.0,43.0,-100.00,WSW,245,2.0,5.0,100,0.00,,,0.00,0.000000,,2013-01-30 05:22:00,
2013-01-30 00:32:00,43.0,43.0,-100.00,WSW,245,2.0,5.0,100,0.00,,,0.00,0.000000,,2013-01-30 05:32:00,
2013-01-30 00:43:00,43.0,43.0,-100.00,WSW,245,2.0,5.0,100,0.00,,,0.00,0.000000,,2013-01-30 05:43:00,
2013-01-30 00:52:00,43.0,43.0,-100.00,WSW,245,2.0,5.0,100,0.00,,,0.00,0.000000,,2013-01-30 05:52:00,
2013-01-30 01:01:00,44.0,44.0,-100.00,SW,225,2.0,5.0,99,0.00,,,0.00,0.000000,,2013-01-30 06:01:00,
2013-01-30 01:22:00,44.0,44.0,-100.00,SW,225,2.0,5.0,99,0.00,,,0.00,0.000000,,2013-01-30 06:22:00,
2013-01-30 01:32:00,44.0,44.0,-100.00,SW,225,2.0,5.0,99,0.00,,,0.00,0.000000,,2013-01-30 06:32:00,
2013-01-30 01:42:00,44.0,44.0,-100.00,SW,225,2.0,5.0,99,0.00,,,0.00,0.000000,,2013-01-30 06:42:00,
2013-01-30 01:52:00,44.0,44.0,-100.00,SW,225,2.0,5.0,99,0.00,,,0.00,0.000000,,2013-01-30 06:52:00,
2013-01-30 02:01:00,45.0,45.0,-100.00,WSW,250,2.0,7.0,100,0.00,,,0.00,0.000000,,2013-01-30 07:01:00,
2013-01-30 02:32:00,45.0,45.0,-100.00,WSW,250,2.0,7.0,100,0.00,,,0.00,0.000000,,2013-01-30 07:32:00,
2013-01-30 02:42:00,45.0,45.0,-100.00,WSW,250,2.0,7.0,100,0.00,,,0.00,0.000000,,2013-01-30 07:42:00,
2013-01-30 02:52:00,45.0,45.0,-100.00,WSW,250,2.0,7.0,100,0.00,,,0.00,0.000000,,2013-01-30 07:52:00,
2013-01-30 03:01:00,47.0,47.0,-100.00,West,268,3.0,7.0,100,0.00,,,0.00,0.000000,,2013-01-30 08:01:00,
2013-01-30 03:32:00,47.0,47.0,-100.00,West,268,3.0,7.0,100,0.00,,,0.00,0.000000,,2013-01-30 08:32:00,
2013-01-30 03:42:00,47.0,47.0,-100.00,West,268,3.0,7.0,100,0.00,,,0.00,0.000000,,2013-01-30 08:42:00,
2013-01-30 03:52:00,47.0,47.0,-100.00,West,268,3.0,7.0,100,0.00,,,0.00,0.000000,,2013-01-30 08:52:00,
2013-01-30 04:01:00,50.0,50.0,-100.00,WNW,284,3.0,11.0,100,0.00,,,0.00,0.000000,,2013-01-30 09:01:00,
2013-01-30 04:32:00,50.0,50.0,-100.00,WNW,284,3.0,11.0,100,0.00,,,0.00,0.000000,,2013-01-30 09:32:00,
2013-01-30 04:42:00,50.0,50.0,-100.00,WNW,284,3.0,11.0,100,0.00,,,0.00,0.000000,,2013-01-30 09:42:00,
2013-01-30 04:52:00,50.0,50.0,-100.00,WNW,284,3.0,11.0,100,0.00,,,0.00,0.000000,,2013-01-30 09:52:00,
2013-01-30 05:01:00,49.0,49.0,-100.00,WNW,295,4.0,12.0,100,0.00,,,0.00,0.000000,,2013-01-30 10:01:00,
2013-01-30 05:22:00,49.0,49.0,-100.00,WNW,295,4.0,12.0,100,0.00,,,0.00,0.000000,,2013-01-30 10:22:00,
2013-01-30 05:32:00,49.0,49.0,-100.00,WNW,295,4.0,12.0,100,0.00,,,0.00,0.000000,,2013-01-30 10:32:00,
2013-01-30 05:42:00,49.0,49.0,-100.00,WNW,295,4.0,12.0,100,0.00,,,0.00,0.000000,,2013-01-30 10:42:00,
2013-01-30 05:52:00,49.0,49.0,-100.00,WNW,295,4.0,12.0,100,0.00,,,0.00,0.000000,,2013-01-30 10:52:00,
2013-01-30 06:01:00,50.0,50.0,-100.00,West,274,4.0,11.0,100,0.00,,,0.00,0.000000,,2013-01-30 11:01:00,
2013-01-30 06:33:00,50.0,50.0,-100.00,West,274,4.0,11.0,100,0.00,,,0.00,0.000000,,2013-01-30 11:33:00,
2013-01-30 06:42:00,50.0,50.0,-100.00,West,274,4.0,11.0,100,0.00,,,0.00,0.000000,,2013-01-30 11:42:00,
2013-01-30 06:52:00,50.0,50.0,-100.00,West,274,4.0,11.0,100,0.00,,,0.00,0.000000,,2013-01-30 11:52:00,
2013-01-30 07:01:00,50.0,50.0,-100.00,WNW,298,4.0,12.0,100,0.00,,,0.00,0.000000,,2013-01-30 12:01:00,
2013-01-30 07:33:00,50.0,50.0,-100.00,WNW,298,4.0,12.0,100,0.00,,,0.00,0.000000,,2013-01-30 12:33:00,
2013-01-30 07:43:00,50.0,50.0,-100.00,WNW,298,4.0,12.0,100,0.00,,,0.00,0.000000,,2013-01-30 12:43:00,
2013-01-30 08:01:00,51.0,51.0,-100.00,WNW,302,6.0,15.0,100,0.00,,,0.00,17.000000,,2013-01-30 13:01:00,
2013-01-30 08:23:00,51.0,51.0,-100.00,WNW,302,6.0,15.0,100,0.00,,,0.00,17.000000,,2013-01-30 13:23:00,
2013-01-30 08:33:00,51.0,51.0,-100.00,WNW,302,6.0,15.0,100,0.00,,,0.00,17.000000,,2013-01-30 13:33:00,
2013-01-30 08:43:00,51.0,51.0,-100.00,WNW,302,6.0,15.0,100,0.00,,,0.00,17.000000,,2013-01-30 13:43:00,
2013-01-30 08:53:00,51.0,51.0,-100.00,WNW,302,6.0,15.0,100,0.00,,,0.00,17.000000,,2013-01-30 13:53:00,
2013-01-30 09:01:00,52.0,52.0,-100.00,NW,308,4.0,16.0,100,0.00,,,0.00,82.000000,,2013-01-30 14:01:00,
2013-01-30 09:33:00,52.0,52.0,-100.00,NW,308,4.0,16.0,100,0.00,,,0.00,82.000000,,2013-01-30 14:33:00,
2013-01-30 09:43:00,52.0,52.0,-100.00,NW,308,4.0,16.0,100,0.00,,,0.00,82.000000,,2013-01-30 14:43:00,
2013-01-30 09:53:00,52.0,52.0,-100.00,NW,308,4.0,16.0,100,0.00,,,0.00,82.000000,,2013-01-30 14:53:00,
2013-01-30 10:01:00,55.0,54.0,-100.00,NW,308,5.0,16.0,97,0.00,,,0.00,140.000000,,2013-01-30 15:01:00,
2013-01-30 10:33:00,55.0,54.0,-100.00,NW,308,5.0,16.0,97,0.00,,,0.00,140.000000,,2013-01-30 15:33:00,
2013-01-30 10:43:00,55.0,54.0,-100.00,NW,308,5.0,16.0,97,0.00,,,0.00,140.000000,,2013-01-30 15:43:00,
2013-01-30 10:53:00,55.0,54.0,-100.00,NW,308,5.0,16.0,97,0.00,,,0.00,140.000000,,2013-01-30 15:53:00,
2013-01-30 11:01:00,56.0,54.0,-100.00,NW,309,6.0,16.0,94,0.00,,,0.00,173.000000,,2013-01-30 16:01:00,
2013-01-30 11:33:00,56.0,54.0,-100.00,NW,309,6.0,16.0,94,0.00,,,0.00,173.000000,,2013-01-30 16:33:00,
2013-01-30 11:42:00,56.0,54.0,-100.00,NW,309,6.0,16.0,94,0.00,,,0.00,173.000000,,2013-01-30 16:42:00,
2013-01-30 11:52:00,56.0,54.0,-100.00,NW,309,6.0,16.0,94,0.00,,,0.00,173.000000,,2013-01-30 16:52:00,
2013-01-30 12:01:00,55.0,54.0,-100.00,WNW,301,7.0,18.0,97,0.00,,,0.00,130.000000,,2013-01-30 17:01:00,
2013-01-30 12:33:00,55.0,54.0,-100.00,WNW,301,7.0,18.0,97,0.00,,,0.00,130.000000,,2013-01-30 17:33:00,
2013-01-30 12:43:00,55.0,54.0,-100.00,WNW,301,7.0,18.0,97,0.00,,,0.00,130.000000,,2013-01-30 17:43:00,
2013-01-30 12:53:00,55.0,54.0,-100.00,WNW,301,7.0,18.0,97,0.00,,,0.00,130.000000,,2013-01-30 17:53:00,
2013-01-30 13:01:00,54.0,54.0,-100.00,NW,317,6.0,19.0,100,0.00,,,0.00,72.000000,,2013-01-30 18:01:00,
2013-01-30 13:33:00,54.0,54.0,-100.00,NW,317,6.0,19.0,100,0.00,,,0.00,72.000000,,2013-01-30 18:33:00,
2013-01-30 13:43:00,54.0,54.0,-100.00,NW,317,6.0,19.0,100,0.00,,,0.00,72.000000,,2013-01-30 18:43:00,
2013-01-30 13:53:00,54.0,54.0,-100.00,NW,317,6.0,19.0,100,0.00,,,0.00,72.000000,,2013-01-30 18:53:00,
2013-01-30 14:01:00,53.0,53.0,-100.00,NW,309,8.0,20.0,100,0.00,,,0.00,55.000000,,2013-01-30 19:01:00,
2013-01-30 14:33:00,53.0,53.0,-100.00,NW,309,8.0,20.0,100,0.00,,,0.00,55.000000,,2013-01-30 19:33:00,
2013-01-30 14:43:00,53.0,53.0,-100.00,NW,309,8.0,20.0,100,0.00,,,0.00,55.000000,,2013-01-30 19:43:00,
2013-01-30 14:53:00,53.0,53.0,-100.00,NW,309,8.0,20.0,100,0.00,,,0.00,55.000000,,2013-01-30 19:53:00,
2013-01-30 15:01:00,52.0,52.0,-100.00,NW,305,6.0,17.0,100,0.00,,,0.00,52.000000,,2013-01-30 20:01:00,
2013-01-30 15:22:00,52.0,52.0,-100.00,NW,305,6.0,17.0,100,0.00,,,0.00,52.000000,,2013-01-30 20:22:00,
2013-01-30 15:33:00,52.0,52.0,-100.00,NW,305,6.0,17.0,100,0.00,,,0.00,52.000000,,2013-01-30 20:33:00,
2013-01-30 15:42:00,52.0,52.0,-100.00,NW,305,6.0,17.0,100,0.00,,,0.00,52.000000,,2013-01-30 20:42:00,
2013-01-30 15:53:00,52.0,52.0,-100.00,NW,305,6.0,17.0,100,0.00,,,0.00,52.000000,,2013-01-30 20:53:00,
2013-01-30 16:01:00,52.0,52.0,-100.00,NW,305,5.0,18.0,100,0.00,,,0.00,31.000000,,2013-01-30 21:01:00,
2013-01-30 16:23:00,52.0,52.0,-100.00,NW,305,5.0,18.0,100,0.00,,,0.00,31.000000,,2013-01-30 21:23:00,
2013-01-30 16:32:00,52.0,52.0,-100.00,NW,305,5.0,18.0,100,0.00,,,0.00,31.000000,,2013-01-30 21:32:00,
2013-01-30 16:43:00,52.0,52.0,-100.00,NW,305,5.0,18.0,100,0.00,,,0.00,31.000000,,2013-01-30 21:43:00,
2013-01-30 16:53:00,52.0,52.0,-100.00,NW,305,5.0,18.0,100,0.00,,,0.00,31.000000,,2013-01-30 21:53:00,
2013-01-30 17:01:00,52.0,52.0,-100.00,NW,306,6.0,16.0,100,0.00,,,0.00,14.000000,,2013-01-30 22:01:00,
2013-01-30 17:22:00,52.0,52.0,-100.00,NW,306,6.0,16.0,100,0.00,,,0.00,14.000000,,2013-01-30 22:22:00,
2013-01-30 17:33:00,52.0,52.0,-100.00,NW,306,6.0,16.0,100,0.00,,,0.00,14.000000,,2013-01-30 22:33:00,
2013-01-30 17:43:00,52.0,52.0,-100.00,NW,306,6.0,16.0,100,0.00,,,0.00,14.000000,,2013-01-30 22:43:00,
2013-01-30 17:53:00,52.0,52.0,-100.00,NW,306,6.0,16.0,100,0.00,,,0.00,14.000000,,2013-01-30 22:53:00,
2013-01-30 18:01:00,53.0,53.0,-100.00,WNW,303,7.0,17.0,100,0.00,,,0.00,0.000000,,2013-01-30 23:01:00,
2013-01-30 18:23:00,53.0,53.0,-100.00,WNW,303,7.0,17.0,100,0.00,,,0.00,0.000000,,2013-01-30 23:23:00,
2013-01-30 18:33:00,53.0,53.0,-100.00,WNW,303,7.0,17.0,100,0.00,,,0.00,0.000000,,2013-01-30 23:33:00,
2013-01-30 18:42:00,53.0,53.0,-100.00,WNW,303,7.0,17.0,100,0.00,,,0.00,0.000000,,2013-01-30 23:42:00,
2013-01-30 18:52:00,53.0,53.0,-100.00,WNW,303,7.0,17.0,100,0.00,,,0.00,0.000000,,2013-01-30 23:52:00,
2013-01-30 19:01:00,53.0,53.0,-100.00,NW,307,6.0,15.0,100,0.00,,,0.00,0.000000,,2013-01-31 00:01:00,
2013-01-30 19:32:00,53.0,53.0,-100.00,NW,307,6.0,15.0,100,0.00,,,0.00,0.000000,,2013-01-31 00:32:00,
2013-01-30 19:43:00,53.0,53.0,-100.00,NW,307,6.0,15.0,100,0.00,,,0.00,0.000000,,2013-01-31 00:43:00,
2013-01-30 19:53:00,53.0,53.0,-100.00,NW,307,6.0,15.0,100,0.00,,,0.00,0.000000,,2013-01-31 00:53:00,
2013-01-30 20:01:00,54.0,54.0,-100.00,NW,314,7.0,20.0,100,0.00,,,0.00,0.000000,,2013-01-31 01:01:00,
2013-01-30 20:32:00,54.0,54.0,-100.00,NW,314,7.0,20.0,100,0.00,,,0.00,0.000000,,2013-01-31 01:32:00,
2013-01-30 20:42:00,54.0,54.0,-100.00,NW,314,7.0,20.0,100,0.00,,,0.00,0.000000,,2013-01-31 01:42:00,
2013-01-30 20:53:00,54.0,54.0,-100.00,NW,314,7.0,20.0,100,0.00,,,0.00,0.000000,,2013-01-31 01:53:00,
2013-01-30 21:01:00,53.0,53.0,-100.00,NW,314,7.0,21.0,100,0.00,,,0.00,0.000000,,2013-01-31 02:01:00,
2013-01-30 21:22:00,53.0,53.0,-100.00,NW,314,7.0,21.0,100,0.00,,,0.00,0.000000,,2013-01-31 02:22:00,
2013-01-30 21:32:00,53.0,53.0,-100.00,NW,314,7.0,21.0,100,0.00,,,0.00,0.000000,,2013-01-31 02:32:00,
2013-01-30 21:42:00,53.0,53.0,-100.00,NW,314,7.0,21.0,100,0.00,,,0.00,0.000000,,2013-01-31 02:42:00,
2013-01-30 21:52:00,53.0,53.0,-100.00,NW,314,7.0,21.0,100,0.00,,,0.00,0.000000,,2013-01-31 02:52:00,
2013-01-30 22:01:00,55.0,55.0,-100.00,NW,313,7.0,21.0,99,0.00,,,0.00,0.000000,,2013-01-31 03:01:00,
2013-01-30 22:32:00,55.0,55.0,-100.00,NW,313,7.0,21.0,99,0.00,,,0.00,0.000000,,2013-01-31 03:32:00,
2013-01-30 22:42:00,55.0,55.0,-100.00,NW,313,7.0,21.0,99,0.00,,,0.00,0.000000,,2013-01-31 03:42:00,
2013-01-30 22:52:00,55.0,55.0,-100.00,NW,313,7.0,21.0,99,0.00,,,0.00,0.000000,,2013-01-31 03:52:00,
2013-01-30 23:01:00,55.0,54.0,-100.00,WNW,299,8.0,23.0,96,0.00,,,0.00,0.000000,,2013-01-31 04:01:00,
2013-01-30 23:32:00,55.0,54.0,-100.00,WNW,299,8.0,23.0,96,0.00,,,0.00,0.000000,,2013-01-31 04:32:00,
2013-01-30 23:42:00,55.0,54.0,-100.00,WNW,299,8.0,23.0,96,0.00,,,0.00,0.000000,,2013-01-31 04:42:00,
2013-01-30 23:52:00,55.0,54.0,-100.00,WNW,299,8.0,23.0,96,0.00,,,0.00,0.000000,,2013-01-31 04:52:00,